Bismarck, Illinois
Current Conditions -  °F | °C
As of 1:15 PM on Friday 24 Oct 2014 (Local Time) from KDNV Reporting Station
Broken Clouds Broken Clouds  
Wind Chill: 65°   Ceiling: 3800
Heat Index: 65°   Visibility: 10mi
Dew Point: 53°   Wind: 6mph
Humidity: 66%   Direction: 200°SSW
Pressure: 30.03"   Gusts: NA
Location:  40.26°N, 87.61°W
Report Text: KDNV 241815Z AUTO 20005KT 10SM SCT024 BKN038 18/12 A3003 RMK AO2 T01810116
Loading
Personal Weather Stations






























Interactive Weather Map
Tropical Storm Tracking
New forecast layout! Learn more

10-Day Weather Forecast

Advertisements
Track Severe Weather on mobile